createdAt,value
2016-11-20T00:00:46.718Z,0
2016-11-20T00:01:47.016Z,0
2016-11-20T00:02:46.676Z,0
2016-11-20T00:03:46.979Z,0
2016-11-20T00:04:46.647Z,0
2016-11-20T00:05:46.622Z,0
2016-11-20T00:06:46.598Z,0
2016-11-20T00:07:46.592Z,0
2016-11-20T00:08:46.881Z,0
2016-11-20T00:09:46.548Z,0
2016-11-20T00:10:46.576Z,0
2016-11-20T00:11:47.141Z,0
2016-11-20T00:12:46.488Z,0
2016-11-20T00:13:46.780Z,0
2016-11-20T00:14:46.768Z,0
2016-11-20T00:15:46.742Z,0
2016-11-20T00:16:46.415Z,0
2016-11-20T00:17:46.399Z,0
2016-11-20T00:18:46.378Z,0
2016-11-20T00:19:46.412Z,0
2016-11-20T00:20:46.689Z,0
2016-11-20T00:21:46.316Z,0
2016-11-20T00:22:46.331Z,0
2016-11-20T00:23:46.292Z,0
2016-11-20T00:24:46.297Z,0
2016-11-20T00:25:46.572Z,0
2016-11-20T00:26:46.228Z,0
2016-11-20T00:27:46.207Z,0
2016-11-20T00:28:46.500Z,0
2016-11-20T00:29:46.480Z,0
2016-11-20T00:30:46.148Z,0
2016-11-20T00:31:46.137Z,0
2016-11-20T00:32:46.109Z,0
2016-11-20T00:33:46.091Z,0
2016-11-20T00:34:46.076Z,0
2016-11-20T00:35:46.367Z,0
2016-11-20T00:36:46.037Z,0
2016-11-20T00:37:46.013Z,0
2016-11-20T00:38:45.998Z,0
2016-11-20T00:39:45.982Z,0
2016-11-20T00:40:46.009Z,0
2016-11-20T00:41:45.946Z,0
2016-11-20T00:42:46.238Z,0
2016-11-20T00:43:45.904Z,0
2016-11-20T00:44:45.882Z,0
2016-11-20T00:45:45.871Z,0
2016-11-20T00:46:45.847Z,0
2016-11-20T00:47:45.828Z,0
2016-11-20T00:48:46.119Z,0
2016-11-20T00:49:45.789Z,0
2016-11-20T00:50:45.768Z,0
2016-11-20T00:51:45.753Z,0
2016-11-20T00:52:45.732Z,0
2016-11-20T00:53:46.351Z,0
2016-11-20T00:54:45.693Z,0
2016-11-20T00:55:46.302Z,0
2016-11-20T00:56:45.696Z,0
2016-11-20T00:57:45.647Z,0
2016-11-20T00:58:45.621Z,0
2016-11-20T00:59:45.640Z,0
2016-11-20T01:00:45.579Z,0
2016-11-20T01:01:45.569Z,0
2016-11-20T01:02:45.868Z,0
2016-11-20T01:03:45.533Z,0
2016-11-20T01:04:45.509Z,0
2016-11-20T01:05:45.493Z,0
2016-11-20T01:06:45.468Z,0
2016-11-20T01:07:45.450Z,0
2016-11-20T01:08:45.440Z,0
2016-11-20T01:09:45.417Z,0
2016-11-20T01:10:45.393Z,0
2016-11-20T01:11:45.692Z,0
2016-11-20T01:12:45.360Z,0
2016-11-20T01:13:45.349Z,0
2016-11-20T01:14:45.632Z,0
2016-11-20T01:15:45.651Z,0
2016-11-20T01:16:45.280Z,0
2016-11-20T01:17:45.572Z,0
2016-11-20T01:18:45.245Z,0
2016-11-20T01:19:45.253Z,0
2016-11-20T01:20:45.205Z,0
2016-11-20T01:21:45.181Z,0
2016-11-20T01:22:45.173Z,0
2016-11-20T01:23:45.173Z,0
2016-11-20T01:24:45.133Z,0
2016-11-20T01:25:45.118Z,0
2016-11-20T01:26:45.094Z,0
2016-11-20T01:27:45.074Z,0
2016-11-20T01:28:45.055Z,0
2016-11-20T01:29:45.354Z,0
2016-11-20T01:30:45.022Z,0
2016-11-20T01:31:45.002Z,0
2016-11-20T01:32:45.301Z,0
2016-11-20T01:33:44.956Z,0
2016-11-20T01:34:44.948Z,0
2016-11-20T01:35:44.926Z,0
2016-11-20T01:36:45.217Z,0
2016-11-20T01:37:44.884Z,0
2016-11-20T01:38:44.869Z,0
2016-11-20T01:39:44.878Z,0
2016-11-20T01:40:45.082Z,0
2016-11-20T01:41:45.120Z,0
2016-11-20T01:42:44.796Z,0
2016-11-20T01:43:44.773Z,0
2016-11-20T01:44:44.758Z,0
2016-11-20T01:45:44.739Z,0
2016-11-20T01:46:44.746Z,0
2016-11-20T01:47:45.015Z,0
2016-11-20T01:48:45.629Z,0
2016-11-20T01:49:44.665Z,0
2016-11-20T01:50:45.276Z,0
2016-11-20T01:51:44.938Z,0
2016-11-20T01:52:44.606Z,0
2016-11-20T01:53:44.614Z,0
2016-11-20T01:54:44.571Z,0
2016-11-20T01:55:44.552Z,0
2016-11-20T01:56:44.538Z,0
2016-11-20T01:57:44.542Z,0
2016-11-20T01:58:44.494Z,0
2016-11-20T01:59:44.795Z,0
2016-11-20T02:00:44.534Z,0
2016-11-20T02:01:44.440Z,0
2016-11-20T02:02:45.074Z,0
2016-11-20T02:03:45.038Z,0
2016-11-20T02:04:44.705Z,0
2016-11-20T02:05:44.370Z,0
2016-11-20T02:06:44.368Z,0
2016-11-20T02:07:44.335Z,0
2016-11-20T02:08:44.636Z,0
2016-11-20T02:09:44.305Z,0
2016-11-20T02:10:44.272Z,0
2016-11-20T02:11:44.251Z,0
2016-11-20T02:12:44.557Z,0
2016-11-20T02:13:44.247Z,0
2016-11-20T02:14:44.202Z,0
2016-11-20T02:15:44.183Z,0
2016-11-20T02:16:44.239Z,0
2016-11-20T02:17:44.459Z,0
2016-11-20T02:18:44.452Z,0
2016-11-20T02:19:44.123Z,0
2016-11-20T02:20:44.122Z,0
2016-11-20T02:21:44.080Z,0
2016-11-20T02:22:44.055Z,0
2016-11-20T02:23:44.036Z,0
2016-11-20T02:24:44.017Z,0
2016-11-20T02:25:44.002Z,0
2016-11-20T02:26:44.295Z,0
2016-11-20T02:27:43.963Z,0
2016-11-20T02:28:44.263Z,0
2016-11-20T02:29:43.929Z,0
2016-11-20T02:30:44.224Z,0
2016-11-20T02:31:43.891Z,0
2016-11-20T02:32:44.504Z,0
2016-11-20T02:33:43.850Z,0
2016-11-20T02:34:43.843Z,0
2016-11-20T02:35:44.137Z,0
2016-11-20T02:36:43.798Z,0
2016-11-20T02:37:43.780Z,0
2016-11-20T02:38:44.080Z,0
2016-11-20T02:39:44.057Z,0
2016-11-20T02:40:44.041Z,0
2016-11-20T02:41:43.716Z,0
2016-11-20T02:42:43.695Z,0
2016-11-20T02:43:43.986Z,0
2016-11-20T02:44:43.651Z,0
2016-11-20T02:45:43.636Z,0
2016-11-20T02:46:43.611Z,0
2016-11-20T02:47:43.606Z,0
2016-11-20T02:48:43.578Z,0
2016-11-20T02:49:43.561Z,0
2016-11-20T02:50:43.543Z,0
2016-11-20T02:51:43.520Z,0
2016-11-20T02:52:43.502Z,0
2016-11-20T02:53:43.486Z,0
2016-11-20T02:54:43.468Z,0
2016-11-20T02:55:43.763Z,0
2016-11-20T02:56:43.432Z,0
2016-11-20T02:57:43.419Z,0
2016-11-20T02:58:43.703Z,0
2016-11-20T02:59:43.719Z,0
2016-11-20T03:00:43.357Z,0
2016-11-20T03:01:43.345Z,0
2016-11-20T03:02:43.636Z,0
2016-11-20T03:03:43.302Z,0
2016-11-20T03:04:43.285Z,0
2016-11-20T03:05:43.610Z,0
2016-11-20T03:06:43.250Z,0
2016-11-20T03:07:43.225Z,0
2016-11-20T03:08:43.212Z,0
2016-11-20T03:09:43.191Z,0
2016-11-20T03:10:43.209Z,0
2016-11-20T03:11:43.792Z,0
2016-11-20T03:12:43.144Z,0
2016-11-20T03:13:43.183Z,0
2016-11-20T03:14:43.110Z,0
2016-11-20T03:15:43.080Z,0
2016-11-20T03:16:43.386Z,0
2016-11-20T03:17:43.042Z,0
2016-11-20T03:18:43.032Z,0
2016-11-20T03:19:43.326Z,0
2016-11-20T03:20:42.999Z,0
2016-11-20T03:21:42.980Z,0
2016-11-20T03:22:42.951Z,0
2016-11-20T03:23:42.946Z,0
2016-11-20T03:24:42.918Z,0
2016-11-20T03:25:42.904Z,0
2016-11-20T03:26:42.880Z,0
2016-11-20T03:27:43.201Z,0
2016-11-20T03:28:42.882Z,0
2016-11-20T03:29:43.142Z,0
2016-11-20T03:30:42.813Z,0
2016-11-20T03:31:42.797Z,0
2016-11-20T03:32:42.771Z,0
2016-11-20T03:33:42.754Z,0
2016-11-20T03:34:42.731Z,0
2016-11-20T03:35:43.031Z,0
2016-11-20T03:36:43.013Z,0
2016-11-20T03:37:42.681Z,0
2016-11-20T03:38:42.701Z,0
2016-11-20T03:39:42.653Z,0
2016-11-20T03:40:43.143Z,0
2016-11-20T03:41:42.925Z,0
2016-11-20T03:42:42.591Z,0
2016-11-20T03:43:42.567Z,0
2016-11-20T03:44:43.187Z,0
2016-11-20T03:45:42.528Z,0
2016-11-20T03:46:42.511Z,0
2016-11-20T03:47:42.524Z,0
2016-11-20T03:48:42.476Z,0
2016-11-20T03:49:42.457Z,0
2016-11-20T03:50:43.067Z,0
2016-11-20T03:51:42.761Z,0
2016-11-20T03:52:42.726Z,0
2016-11-20T03:53:42.696Z,0
2016-11-20T03:54:42.366Z,0
2016-11-20T03:55:42.349Z,0
2016-11-20T03:56:42.333Z,0
2016-11-20T03:57:42.398Z,0
2016-11-20T03:58:42.295Z,0
2016-11-20T03:59:42.280Z,0
2016-11-20T04:00:42.257Z,0
2016-11-20T04:01:42.240Z,0
2016-11-20T04:02:42.216Z,0
2016-11-20T04:03:42.211Z,0
2016-11-20T04:04:42.186Z,0
2016-11-20T04:05:42.476Z,0
2016-11-20T04:06:42.458Z,0
2016-11-20T04:07:42.127Z,0
2016-11-20T04:08:42.418Z,0
2016-11-20T04:09:42.116Z,0
2016-11-20T04:10:42.072Z,0
2016-11-20T04:11:42.724Z,0
2016-11-20T04:12:42.034Z,0
2016-11-20T04:13:42.051Z,0
2016-11-20T04:14:41.991Z,0
2016-11-20T04:15:42.012Z,0
2016-11-20T04:16:42.286Z,0
2016-11-20T04:17:41.943Z,0
2016-11-20T04:18:42.239Z,0
2016-11-20T04:19:42.218Z,0
2016-11-20T04:20:41.885Z,0
2016-11-20T04:21:42.178Z,0
2016-11-20T04:22:41.840Z,0
2016-11-20T04:23:42.143Z,0
2016-11-20T04:24:41.805Z,0
2016-11-20T04:25:41.794Z,0
2016-11-20T04:26:41.774Z,0
2016-11-20T04:27:41.758Z,0
2016-11-20T04:28:41.740Z,0
2016-11-20T04:29:42.406Z,0
2016-11-20T04:30:41.695Z,0
2016-11-20T04:31:41.686Z,0
2016-11-20T04:32:41.989Z,0
2016-11-20T04:33:41.658Z,0
2016-11-20T04:34:41.628Z,0
2016-11-20T04:35:41.920Z,0
2016-11-20T04:36:42.219Z,0
2016-11-20T04:37:41.579Z,0
2016-11-20T04:38:41.562Z,0
2016-11-20T04:39:41.537Z,0
2016-11-20T04:40:41.523Z,0
2016-11-20T04:41:41.500Z,0
2016-11-20T04:42:41.477Z,0
2016-11-20T04:43:41.468Z,0
2016-11-20T04:44:41.450Z,0
2016-11-20T04:45:41.430Z,0
2016-11-20T04:46:41.405Z,0
2016-11-20T04:47:41.402Z,0
2016-11-20T04:48:41.379Z,0
2016-11-20T04:49:41.680Z,0
2016-11-20T04:50:41.641Z,0
2016-11-20T04:51:41.631Z,0
2016-11-20T04:52:41.292Z,0
2016-11-20T04:53:41.600Z,0
2016-11-20T04:54:41.254Z,0
2016-11-20T04:55:41.256Z,0
2016-11-20T04:56:41.842Z,0
2016-11-20T04:57:41.201Z,0
2016-11-20T04:58:41.184Z,0
2016-11-20T04:59:41.202Z,0
2016-11-20T05:00:41.145Z,0
2016-11-20T05:01:41.176Z,0
2016-11-20T05:02:41.137Z,0
2016-11-20T05:03:41.741Z,0
2016-11-20T05:04:41.075Z,0
2016-11-20T05:05:41.063Z,0
2016-11-20T05:06:41.353Z,0
2016-11-20T05:07:41.389Z,0
2016-11-20T05:08:41.058Z,0
2016-11-20T05:09:40.981Z,0
2016-11-20T05:10:40.974Z,0
2016-11-20T05:11:40.944Z,0
2016-11-20T05:12:41.312Z,0
2016-11-20T05:13:41.225Z,0
2016-11-20T05:14:40.888Z,0
2016-11-20T05:15:40.883Z,0
2016-11-20T05:16:40.851Z,0
2016-11-20T05:17:40.834Z,0
2016-11-20T05:18:41.756Z,0
2016-11-20T05:19:40.802Z,0
2016-11-20T05:20:40.779Z,0
2016-11-20T05:21:41.075Z,0
2016-11-20T05:22:40.747Z,0
2016-11-20T05:23:40.754Z,0
2016-11-20T05:24:40.723Z,0
2016-11-20T05:25:40.726Z,0
2016-11-20T05:26:40.674Z,0
2016-11-20T05:27:40.971Z,0
2016-11-20T05:28:40.644Z,0
2016-11-20T05:29:40.621Z,0
2016-11-20T05:30:40.916Z,0
2016-11-20T05:31:40.579Z,0
2016-11-20T05:32:40.557Z,0
2016-11-20T05:33:40.542Z,0
2016-11-20T05:34:40.874Z,0
2016-11-20T05:35:40.507Z,0
2016-11-20T05:36:40.495Z,0
2016-11-20T05:37:40.476Z,0
2016-11-20T05:38:40.454Z,0
2016-11-20T05:39:40.431Z,0
2016-11-20T05:40:40.826Z,0
2016-11-20T05:41:40.435Z,0
2016-11-20T05:42:40.388Z,0
2016-11-20T05:43:40.364Z,0
2016-11-20T05:44:40.338Z,0
2016-11-20T05:45:40.345Z,0
2016-11-20T05:46:40.305Z,0
2016-11-20T05:47:40.345Z,0
2016-11-20T05:48:40.273Z,0
2016-11-20T05:49:40.256Z,0
2016-11-20T05:50:40.236Z,0
2016-11-20T05:51:40.220Z,0
2016-11-20T05:52:40.205Z,0
2016-11-20T05:53:40.186Z,0
2016-11-20T05:54:40.161Z,0
2016-11-20T05:55:40.153Z,0
2016-11-20T05:56:40.175Z,0
2016-11-20T05:57:40.735Z,0
2016-11-20T05:58:40.737Z,0
2016-11-20T05:59:40.395Z,0
2016-11-20T06:00:40.059Z,0
2016-11-20T06:01:40.048Z,0
2016-11-20T06:02:40.018Z,0
2016-11-20T06:03:39.999Z,0
2016-11-20T06:04:39.992Z,0
2016-11-20T06:05:39.968Z,0
2016-11-20T06:06:39.954Z,0
2016-11-20T06:07:39.924Z,0
2016-11-20T06:08:39.908Z,0
2016-11-20T06:09:39.928Z,0
2016-11-20T06:10:39.879Z,0
2016-11-20T06:11:39.854Z,0
2016-11-20T06:12:39.850Z,0
2016-11-20T06:13:39.870Z,0
2016-11-20T06:14:39.802Z,0
2016-11-20T06:15:39.794Z,0
2016-11-20T06:16:40.114Z,0
2016-11-20T06:17:39.746Z,0
2016-11-20T06:18:39.735Z,0
2016-11-20T06:19:39.771Z,0
2016-11-20T06:20:39.698Z,0
2016-11-20T06:21:39.685Z,0
2016-11-20T06:22:39.978Z,0
2016-11-20T06:23:39.964Z,0
2016-11-20T06:24:39.621Z,0
2016-11-20T06:25:39.607Z,0
2016-11-20T06:26:39.955Z,0
2016-11-20T06:27:39.904Z,0
2016-11-20T06:28:39.876Z,0
2016-11-20T06:29:39.538Z,0
2016-11-20T06:30:39.537Z,0
2016-11-20T06:31:39.512Z,0
2016-11-20T06:32:39.806Z,0
2016-11-20T06:33:39.474Z,0
2016-11-20T06:34:39.447Z,0
2016-11-20T06:35:39.436Z,0
2016-11-20T06:36:39.724Z,0
2016-11-20T06:37:39.712Z,0
2016-11-20T06:38:39.377Z,0
2016-11-20T06:39:39.675Z,0
2016-11-20T06:40:39.654Z,0
2016-11-20T06:41:39.317Z,0
2016-11-20T06:42:39.310Z,0
2016-11-20T06:43:39.636Z,0
2016-11-20T06:44:39.272Z,0
2016-11-20T06:45:39.260Z,0
2016-11-20T06:46:39.239Z,0
2016-11-20T06:47:39.532Z,0
2016-11-20T06:48:39.206Z,0
2016-11-20T06:49:39.187Z,0
2016-11-20T06:50:39.213Z,0
2016-11-20T06:51:39.151Z,0
2016-11-20T06:52:39.127Z,0
2016-11-20T06:53:39.117Z,0
2016-11-20T06:54:39.090Z,0
2016-11-20T06:55:39.073Z,0
2016-11-20T06:56:39.057Z,0
2016-11-20T06:57:39.367Z,0
2016-11-20T06:58:39.026Z,0
2016-11-20T06:59:39.047Z,0
2016-11-20T07:00:39.045Z,0
2016-11-20T07:01:39.289Z,0
2016-11-20T07:02:38.948Z,0
2016-11-20T07:03:39.259Z,0
2016-11-20T07:04:39.241Z,0
2016-11-20T07:05:39.217Z,0
2016-11-20T07:06:38.890Z,0
2016-11-20T07:07:38.864Z,0
2016-11-20T07:08:39.208Z,0
2016-11-20T07:09:38.831Z,0
2016-11-20T07:10:38.820Z,0
2016-11-20T07:11:39.106Z,0
2016-11-20T07:12:39.092Z,0
2016-11-20T07:13:38.774Z,0
2016-11-20T07:14:38.782Z,0
2016-11-20T07:15:39.051Z,0
2016-11-20T07:16:38.701Z,0
2016-11-20T07:17:39.004Z,0
2016-11-20T07:18:39.314Z,5
2016-11-20T07:19:38.652Z,5
2016-11-20T07:20:38.637Z,5
2016-11-20T07:21:38.666Z,5
2016-11-20T07:22:38.597Z,5
2016-11-20T07:23:38.596Z,5
2016-11-20T07:24:38.569Z,5
2016-11-20T07:25:39.182Z,10
2016-11-20T07:26:38.847Z,10
2016-11-20T07:27:38.525Z,10
2016-11-20T07:28:38.504Z,10
2016-11-20T07:29:38.485Z,10
2016-11-20T07:30:38.481Z,10
2016-11-20T07:31:38.449Z,10
2016-11-20T07:32:38.762Z,10
2016-11-20T07:33:38.414Z,10
2016-11-20T07:34:38.400Z,5
2016-11-20T07:35:38.695Z,5
2016-11-20T07:36:38.367Z,5
2016-11-20T07:37:38.668Z,5
2016-11-20T07:38:38.334Z,5
2016-11-20T07:39:38.318Z,5
2016-11-20T07:40:38.629Z,5
2016-11-20T07:41:38.593Z,5
2016-11-20T07:42:38.262Z,5
2016-11-20T07:43:38.239Z,5
2016-11-20T07:44:38.227Z,5
2016-11-20T07:45:38.294Z,10
2016-11-20T07:46:38.512Z,10
2016-11-20T07:47:38.184Z,10
2016-11-20T07:48:38.511Z,10
2016-11-20T07:49:38.467Z,10
2016-11-20T07:50:38.438Z,10
2016-11-20T07:51:38.103Z,10
2016-11-20T07:52:38.084Z,10
2016-11-20T07:53:38.418Z,10
2016-11-20T07:54:38.366Z,15
2016-11-20T07:55:38.049Z,15
2016-11-20T07:56:38.030Z,15
2016-11-20T07:57:38.004Z,15
2016-11-20T07:58:37.999Z,10
2016-11-20T07:59:37.982Z,15
2016-11-20T08:00:37.953Z,15
2016-11-20T08:01:37.930Z,15
2016-11-20T08:02:38.229Z,15
2016-11-20T08:03:37.902Z,20
2016-11-20T08:04:37.890Z,20
2016-11-20T08:05:37.870Z,20
2016-11-20T08:06:37.876Z,25
2016-11-20T08:07:37.834Z,25
2016-11-20T08:08:37.826Z,25
2016-11-20T08:09:37.812Z,30
2016-11-20T08:10:37.795Z,25
2016-11-20T08:11:37.768Z,30
2016-11-20T08:12:37.751Z,25
2016-11-20T08:13:37.732Z,25
2016-11-20T08:14:37.718Z,25
2016-11-20T08:15:37.696Z,25
2016-11-20T08:16:38.310Z,25
2016-11-20T08:17:37.995Z,20
2016-11-20T08:18:37.655Z,20
2016-11-20T08:19:37.632Z,20
2016-11-20T08:20:37.620Z,15
2016-11-20T08:21:37.606Z,15
2016-11-20T08:22:37.893Z,15
2016-11-20T08:23:37.569Z,15
2016-11-20T08:24:37.549Z,15
2016-11-20T08:25:38.160Z,10
2016-11-20T08:26:37.517Z,10
2016-11-20T08:27:38.131Z,10
2016-11-20T08:28:37.495Z,10
2016-11-20T08:29:37.777Z,10
2016-11-20T08:30:37.449Z,15
2016-11-20T08:31:37.440Z,15
2016-11-20T08:32:37.724Z,20
2016-11-20T08:33:37.394Z,20
2016-11-20T08:34:37.718Z,20
2016-11-20T08:35:37.369Z,15
2016-11-20T08:36:37.345Z,15
2016-11-20T08:37:37.649Z,15
2016-11-20T08:38:37.309Z,10
2016-11-20T08:39:37.616Z,10
2016-11-20T08:40:37.290Z,10
2016-11-20T08:41:37.263Z,5
2016-11-20T08:42:37.261Z,5
2016-11-20T08:43:37.261Z,10
2016-11-20T08:44:37.206Z,10
2016-11-20T08:45:37.268Z,15
2016-11-20T08:46:37.169Z,10
2016-11-20T08:47:37.156Z,10
2016-11-20T08:48:37.448Z,5
2016-11-20T08:49:37.443Z,5
2016-11-20T08:50:37.419Z,10
2016-11-20T08:51:37.084Z,10
2016-11-20T08:52:37.069Z,15
2016-11-20T08:53:37.365Z,15
2016-11-20T08:54:37.028Z,15
2016-11-20T08:55:37.326Z,15
2016-11-20T08:56:37.339Z,15
2016-11-20T08:57:36.981Z,15
2016-11-20T08:58:37.293Z,15
2016-11-20T08:59:36.947Z,15
2016-11-20T09:00:36.928Z,15
2016-11-20T09:01:36.922Z,15
2016-11-20T09:02:36.888Z,15
2016-11-20T09:03:36.890Z,15
2016-11-20T09:04:37.163Z,15
2016-11-20T09:05:36.836Z,15
2016-11-20T09:06:37.123Z,15
2016-11-20T09:07:37.142Z,10
2016-11-20T09:08:36.788Z,10
2016-11-20T09:09:36.778Z,10
2016-11-20T09:10:36.760Z,10
2016-11-20T09:11:36.734Z,10
2016-11-20T09:12:36.706Z,10
2016-11-20T09:13:37.005Z,10
2016-11-20T09:14:37.014Z,10
2016-11-20T09:15:36.675Z,15
2016-11-20T09:16:36.643Z,25
2016-11-20T09:17:36.616Z,35
2016-11-20T09:18:36.594Z,45
2016-11-20T09:19:36.604Z,50
2016-11-20T09:20:36.560Z,50
2016-11-20T09:21:36.901Z,55
2016-11-20T09:22:36.533Z,70
2016-11-20T09:23:36.845Z,85
2016-11-20T09:24:36.796Z,100
2016-11-20T09:25:36.471Z,130
2016-11-20T09:26:36.723Z,135
2016-11-20T09:27:36.435Z,130
2016-11-20T09:28:36.414Z,130
2016-11-20T09:29:36.719Z,130
2016-11-20T09:30:36.376Z,145
2016-11-20T09:31:36.677Z,145
2016-11-20T09:32:36.665Z,155
2016-11-20T09:33:36.650Z,175
2016-11-20T09:34:36.309Z,210
2016-11-20T09:35:36.293Z,190
2016-11-20T09:36:36.266Z,255
2016-11-20T09:37:36.564Z,180
2016-11-20T09:38:36.554Z,190
2016-11-20T09:39:36.218Z,225
2016-11-20T09:40:36.214Z,225
2016-11-20T09:41:36.414Z,205
2016-11-20T09:42:36.165Z,240
2016-11-20T09:43:36.461Z,230
2016-11-20T09:44:36.140Z,230
2016-11-20T09:45:36.134Z,215
2016-11-20T09:46:36.099Z,210
2016-11-20T09:47:36.088Z,210
2016-11-20T09:48:36.092Z,210
2016-11-20T09:49:36.049Z,205
2016-11-20T09:50:36.036Z,210
2016-11-20T09:51:36.076Z,235
2016-11-20T09:52:36.032Z,230
2016-11-20T09:53:35.989Z,200
2016-11-20T09:54:36.279Z,185
2016-11-20T09:55:35.988Z,175
2016-11-20T09:56:35.929Z,170
2016-11-20T09:57:36.269Z,175
2016-11-20T09:58:35.937Z,165
2016-11-20T09:59:35.887Z,175
2016-11-20T10:00:36.186Z,160
2016-11-20T10:01:35.850Z,170
2016-11-20T10:02:35.836Z,160
2016-11-20T10:03:36.137Z,155
2016-11-20T10:04:35.808Z,150
2016-11-20T10:05:35.796Z,195
2016-11-20T10:06:35.776Z,140
2016-11-20T10:07:35.750Z,135
2016-11-20T10:08:35.741Z,125
2016-11-20T10:09:35.731Z,135
2016-11-20T10:10:35.710Z,180
2016-11-20T10:11:36.008Z,190
2016-11-20T10:12:35.675Z,230
2016-11-20T10:13:36.036Z,230
2016-11-20T10:14:36.290Z,250
2016-11-20T10:15:35.643Z,270
2016-11-20T10:16:35.612Z,275
2016-11-20T10:17:35.602Z,240
2016-11-20T10:18:35.583Z,210
2016-11-20T10:19:35.579Z,245
2016-11-20T10:20:35.557Z,220
2016-11-20T10:21:35.843Z,270
2016-11-20T10:22:35.537Z,310
2016-11-20T10:23:35.823Z,380
2016-11-20T10:24:35.546Z,335
2016-11-20T10:25:35.473Z,285
2016-11-20T10:26:35.807Z,255
2016-11-20T10:27:35.755Z,195
2016-11-20T10:28:35.742Z,200
2016-11-20T10:29:35.738Z,185
2016-11-20T10:30:36.083Z,175
2016-11-20T10:31:35.397Z,185
2016-11-20T10:32:35.688Z,200
2016-11-20T10:33:35.388Z,185
2016-11-20T10:34:35.356Z,175
2016-11-20T10:35:35.332Z,185
2016-11-20T10:36:35.623Z,185
2016-11-20T10:37:35.288Z,165
2016-11-20T10:38:35.276Z,155
2016-11-20T10:39:35.261Z,185
2016-11-20T10:40:35.558Z,200
2016-11-20T10:41:35.559Z,185
2016-11-20T10:42:35.539Z,175
2016-11-20T10:43:35.199Z,170
2016-11-20T10:44:35.501Z,165
2016-11-20T10:45:35.171Z,165
2016-11-20T10:46:35.170Z,165
2016-11-20T10:47:35.455Z,175
2016-11-20T10:48:35.157Z,190
2016-11-20T10:49:35.421Z,190
2016-11-20T10:50:35.411Z,190
2016-11-20T10:51:35.394Z,180
2016-11-20T10:52:35.060Z,170
2016-11-20T10:53:35.055Z,150
2016-11-20T10:54:35.044Z,145
2016-11-20T10:55:35.050Z,145
2016-11-20T10:56:35.643Z,145
2016-11-20T10:57:35.005Z,145
2016-11-20T10:58:35.320Z,145
2016-11-20T10:59:35.285Z,120
2016-11-20T11:00:34.942Z,115
2016-11-20T11:01:34.926Z,125
2016-11-20T11:02:35.227Z,120
2016-11-20T11:03:34.895Z,165
2016-11-20T11:04:34.885Z,220
2016-11-20T11:05:34.870Z,270
2016-11-20T11:06:34.851Z,415
2016-11-20T11:07:34.839Z,430
2016-11-20T11:08:34.828Z,330
2016-11-20T11:09:35.440Z,240
2016-11-20T11:10:35.104Z,195
2016-11-20T11:11:34.787Z,260
2016-11-20T11:12:34.766Z,450
2016-11-20T11:13:35.096Z,575
2016-11-20T11:14:34.738Z,585
2016-11-20T11:15:34.724Z,440
2016-11-20T11:16:35.035Z,545
2016-11-20T11:17:35.015Z,510
2016-11-20T11:18:34.685Z,625
2016-11-20T11:19:34.669Z,500
2016-11-20T11:20:34.657Z,315
2016-11-20T11:21:34.648Z,185
2016-11-20T11:22:34.635Z,185
2016-11-20T11:23:34.622Z,185
2016-11-20T11:24:34.616Z,160
2016-11-20T11:25:34.597Z,190
2016-11-20T11:26:34.582Z,210
2016-11-20T11:27:34.573Z,235
2016-11-20T11:28:34.565Z,280
2016-11-20T11:29:34.914Z,170
2016-11-20T11:30:34.539Z,145
2016-11-20T11:31:34.525Z,200
2016-11-20T11:32:34.507Z,195
2016-11-20T11:33:34.489Z,165
2016-11-20T11:34:34.478Z,155
2016-11-20T11:35:34.513Z,155
2016-11-20T11:36:34.802Z,145
2016-11-20T11:37:34.445Z,165
2016-11-20T11:38:35.263Z,175
2016-11-20T11:39:34.420Z,160
2016-11-20T11:40:34.473Z,155
2016-11-20T11:41:34.906Z,200
2016-11-20T11:42:34.690Z,195
2016-11-20T11:43:34.694Z,240
2016-11-20T11:44:34.664Z,240
2016-11-20T11:45:34.346Z,265
2016-11-20T11:46:34.326Z,230
2016-11-20T11:47:34.339Z,200
2016-11-20T11:48:34.332Z,205
2016-11-20T11:49:34.325Z,395
2016-11-20T11:50:34.286Z,195
2016-11-20T11:51:34.256Z,315
2016-11-20T11:52:34.565Z,460
2016-11-20T11:53:34.243Z,235
2016-11-20T11:54:34.222Z,615
2016-11-20T11:55:34.559Z,225
2016-11-20T11:56:34.200Z,205
2016-11-20T11:57:34.186Z,200
2016-11-20T11:58:34.500Z,215
2016-11-20T11:59:34.212Z,230
2016-11-20T12:00:34.467Z,240
2016-11-20T12:01:34.139Z,240
2016-11-20T12:02:34.122Z,245
2016-11-20T12:03:34.112Z,160
2016-11-20T12:04:34.419Z,155
2016-11-20T12:05:34.094Z,130
2016-11-20T12:06:34.081Z,125
2016-11-20T12:07:34.078Z,110
2016-11-20T12:08:34.054Z,85
2016-11-20T12:09:34.042Z,85
2016-11-20T12:10:34.031Z,75
2016-11-20T12:11:34.344Z,70
2016-11-20T12:12:34.007Z,60
2016-11-20T12:13:34.343Z,75
2016-11-20T12:14:33.981Z,55
2016-11-20T12:15:33.977Z,55
2016-11-20T12:16:33.955Z,60
2016-11-20T12:17:33.942Z,65
2016-11-20T12:18:33.967Z,70
2016-11-20T12:19:33.917Z,85
2016-11-20T12:20:34.547Z,70
2016-11-20T12:21:33.894Z,85
2016-11-20T12:22:33.881Z,60
2016-11-20T12:23:33.893Z,55
2016-11-20T12:24:33.857Z,75
2016-11-20T12:25:34.471Z,90
2016-11-20T12:26:33.827Z,75
2016-11-20T12:27:33.813Z,80
2016-11-20T12:28:33.801Z,95
2016-11-20T12:29:33.789Z,115
2016-11-20T12:30:33.779Z,100
2016-11-20T12:31:33.769Z,80
2016-11-20T12:32:34.072Z,75
2016-11-20T12:33:33.742Z,65
2016-11-20T12:34:33.753Z,85
2016-11-20T12:35:33.717Z,105
2016-11-20T12:36:33.702Z,95
2016-11-20T12:37:33.692Z,95
2016-11-20T12:38:33.941Z,90
2016-11-20T12:39:33.981Z,95
2016-11-20T12:40:33.658Z,120
2016-11-20T12:41:33.952Z,150
2016-11-20T12:42:33.627Z,145
2016-11-20T12:43:33.611Z,140
2016-11-20T12:44:33.916Z,105
2016-11-20T12:45:33.598Z,115
2016-11-20T12:46:34.213Z,110
2016-11-20T12:47:33.873Z,90
2016-11-20T12:48:33.565Z,70
2016-11-20T12:49:33.560Z,80
2016-11-20T12:50:33.536Z,70
2016-11-20T12:51:33.526Z,80
2016-11-20T12:52:33.822Z,65
2016-11-20T12:53:33.811Z,50
2016-11-20T12:54:33.796Z,55
2016-11-20T12:55:33.481Z,60
2016-11-20T12:56:33.769Z,60
2016-11-20T12:57:33.443Z,65
2016-11-20T12:58:33.425Z,55
2016-11-20T12:59:33.410Z,55
2016-11-20T13:00:33.714Z,55
2016-11-20T13:01:33.701Z,50
2016-11-20T13:02:33.369Z,45
2016-11-20T13:03:33.355Z,65
2016-11-20T13:04:33.665Z,55
2016-11-20T13:05:33.646Z,55
2016-11-20T13:06:33.324Z,55
2016-11-20T13:07:33.303Z,50
2016-11-20T13:08:33.315Z,50
2016-11-20T13:09:33.598Z,50
2016-11-20T13:10:33.265Z,45
2016-11-20T13:11:33.571Z,70
2016-11-20T13:12:33.554Z,85
2016-11-20T13:13:33.226Z,85
2016-11-20T13:14:33.247Z,80
2016-11-20T13:15:33.512Z,70
2016-11-20T13:16:33.191Z,85
2016-11-20T13:17:33.230Z,65
2016-11-20T13:18:33.171Z,60
2016-11-20T13:19:33.152Z,65
2016-11-20T13:20:33.450Z,75
2016-11-20T13:21:33.120Z,75
2016-11-20T13:22:33.796Z,60
2016-11-20T13:23:33.466Z,80
2016-11-20T13:24:33.406Z,65
2016-11-20T13:25:33.397Z,55
2016-11-20T13:26:33.691Z,45
2016-11-20T13:27:33.055Z,40
2016-11-20T13:28:33.055Z,30
2016-11-20T13:29:33.022Z,25
2016-11-20T13:30:33.008Z,30
2016-11-20T13:31:32.991Z,50
2016-11-20T13:32:33.358Z,50
2016-11-20T13:33:33.285Z,50
2016-11-20T13:34:32.954Z,35
2016-11-20T13:35:32.942Z,50
2016-11-20T13:36:32.954Z,50
2016-11-20T13:37:33.240Z,50
2016-11-20T13:38:32.909Z,40
2016-11-20T13:39:33.199Z,50
2016-11-20T13:40:32.886Z,55
2016-11-20T13:41:33.068Z,60
2016-11-20T13:42:32.877Z,80
2016-11-20T13:43:32.841Z,70
2016-11-20T13:44:32.824Z,55
2016-11-20T13:45:32.812Z,65
2016-11-20T13:46:33.113Z,85
2016-11-20T13:47:32.800Z,85
2016-11-20T13:48:33.092Z,65
2016-11-20T13:49:32.824Z,50
2016-11-20T13:50:32.748Z,35
2016-11-20T13:51:32.735Z,20
2016-11-20T13:52:32.719Z,20
2016-11-20T13:53:33.033Z,25
2016-11-20T13:54:32.704Z,50
2016-11-20T13:55:32.688Z,50
2016-11-20T13:56:32.667Z,40
2016-11-20T13:57:32.667Z,30
2016-11-20T13:58:32.648Z,40
2016-11-20T13:59:32.955Z,75
2016-11-20T14:00:32.621Z,50
2016-11-20T14:01:32.621Z,40
2016-11-20T14:02:32.930Z,35
2016-11-20T14:03:32.899Z,45
2016-11-20T14:04:32.564Z,55
2016-11-20T14:05:32.595Z,65
2016-11-20T14:06:32.872Z,55
2016-11-20T14:07:32.561Z,45
2016-11-20T14:08:32.839Z,45
2016-11-20T14:09:32.848Z,60
2016-11-20T14:10:32.523Z,60
2016-11-20T14:11:32.479Z,70
2016-11-20T14:12:32.471Z,75
2016-11-20T14:13:32.449Z,55
2016-11-20T14:14:32.465Z,45
2016-11-20T14:15:32.429Z,30
2016-11-20T14:16:32.739Z,30
2016-11-20T14:17:32.721Z,25
2016-11-20T14:18:32.706Z,30
2016-11-20T14:19:33.022Z,35
2016-11-20T14:20:32.375Z,30
2016-11-20T14:21:32.668Z,25
2016-11-20T14:22:32.670Z,35
2016-11-20T14:23:32.332Z,40
2016-11-20T14:24:32.312Z,40
2016-11-20T14:25:32.928Z,50